sensor_id;sensor_type;location;lat;lon;timestamp;P1;durP1;ratioP1;P2;durP2;ratioP2
19780;SDS011;10050;55.492;13.506;2022-10-26T00:01:17;7.57;;;3.23;;
19780;SDS011;10050;55.492;13.506;2022-10-26T00:03:44;8.07;;;3.00;;
19780;SDS011;10050;55.492;13.506;2022-10-26T00:06:17;7.77;;;3.53;;
19780;SDS011;10050;55.492;13.506;2022-10-26T00:08:44;7.17;;;3.70;;
19780;SDS011;10050;55.492;13.506;2022-10-26T00:11:10;7.93;;;3.40;;
19780;SDS011;10050;55.492;13.506;2022-10-26T00:13:37;6.53;;;3.80;;
19780;SDS011;10050;55.492;13.506;2022-10-26T00:16:10;7.43;;;3.70;;
19780;SDS011;10050;55.492;13.506;2022-10-26T00:18:50;6.30;;;3.13;;
19780;SDS011;10050;55.492;13.506;2022-10-26T00:21:17;8.67;;;3.83;;
19780;SDS011;10050;55.492;13.506;2022-10-26T00:23:43;9.43;;;3.90;;
19780;SDS011;10050;55.492;13.506;2022-10-26T00:26:09;8.33;;;3.57;;
19780;SDS011;10050;55.492;13.506;2022-10-26T00:28:36;8.47;;;3.20;;
19780;SDS011;10050;55.492;13.506;2022-10-26T00:31:05;6.63;;;2.83;;
19780;SDS011;10050;55.492;13.506;2022-10-26T00:33:35;10.07;;;3.00;;
19780;SDS011;10050;55.492;13.506;2022-10-26T00:36:00;10.73;;;3.43;;
19780;SDS011;10050;55.492;13.506;2022-10-26T00:38:26;10.73;;;3.27;;
19780;SDS011;10050;55.492;13.506;2022-10-26T00:40:52;6.60;;;2.77;;
19780;SDS011;10050;55.492;13.506;2022-10-26T00:45:46;6.60;;;2.80;;
19780;SDS011;10050;55.492;13.506;2022-10-26T00:48:20;9.17;;;3.20;;
19780;SDS011;10050;55.492;13.506;2022-10-26T00:50:52;6.73;;;3.07;;
19780;SDS011;10050;55.492;13.506;2022-10-26T00:53:20;9.47;;;3.23;;
19780;SDS011;10050;55.492;13.506;2022-10-26T00:55:47;6.20;;;2.87;;
19780;SDS011;10050;55.492;13.506;2022-10-26T00:58:14;9.03;;;3.37;;
19780;SDS011;10050;55.492;13.506;2022-10-26T01:00:41;9.70;;;3.97;;
19780;SDS011;10050;55.492;13.506;2022-10-26T01:03:08;11.77;;;3.60;;
19780;SDS011;10050;55.492;13.506;2022-10-26T01:05:35;9.40;;;3.70;;
19780;SDS011;10050;55.492;13.506;2022-10-26T01:08:04;7.23;;;3.30;;
19780;SDS011;10050;55.492;13.506;2022-10-26T01:10:31;6.67;;;3.60;;
19780;SDS011;10050;55.492;13.506;2022-10-26T01:12:58;18.07;;;4.50;;
19780;SDS011;10050;55.492;13.506;2022-10-26T01:15:30;11.93;;;4.20;;
19780;SDS011;10050;55.492;13.506;2022-10-26T01:18:15;12.80;;;3.50;;
19780;SDS011;10050;55.492;13.506;2022-10-26T01:26:46;9.10;;;3.97;;
19780;SDS011;10050;55.492;13.506;2022-10-26T01:31:55;11.30;;;3.70;;
19780;SDS011;10050;55.492;13.506;2022-10-26T01:34:51;8.30;;;3.63;;
19780;SDS011;10050;55.492;13.506;2022-10-26T01:37:35;9.40;;;3.93;;
19780;SDS011;10050;55.492;13.506;2022-10-26T01:40:08;9.37;;;4.30;;
19780;SDS011;10050;55.492;13.506;2022-10-26T01:42:41;10.43;;;4.40;;
19780;SDS011;10050;55.492;13.506;2022-10-26T01:45:12;14.53;;;4.40;;
19780;SDS011;10050;55.492;13.506;2022-10-26T01:47:39;14.87;;;4.63;;
19780;SDS011;10050;55.492;13.506;2022-10-26T01:50:06;14.77;;;4.47;;
19780;SDS011;10050;55.492;13.506;2022-10-26T01:52:33;13.63;;;4.03;;
19780;SDS011;10050;55.492;13.506;2022-10-26T01:55:46;12.33;;;3.77;;
19780;SDS011;10050;55.492;13.506;2022-10-26T01:58:09;7.00;;;3.40;;
19780;SDS011;10050;55.492;13.506;2022-10-26T02:00:37;9.43;;;3.90;;
19780;SDS011;10050;55.492;13.506;2022-10-26T02:03:14;7.77;;;3.43;;
19780;SDS011;10050;55.492;13.506;2022-10-26T02:08:50;14.70;;;3.60;;
19780;SDS011;10050;55.492;13.506;2022-10-26T02:11:35;12.97;;;3.93;;
19780;SDS011;10050;55.492;13.506;2022-10-26T02:17:01;12.73;;;3.60;;
19780;SDS011;10050;55.492;13.506;2022-10-26T02:19:37;9.10;;;3.90;;
19780;SDS011;10050;55.492;13.506;2022-10-26T02:25:03;8.43;;;3.67;;
19780;SDS011;10050;55.492;13.506;2022-10-26T02:27:33;8.70;;;3.50;;
19780;SDS011;10050;55.492;13.506;2022-10-26T02:30:02;7.50;;;3.70;;
19780;SDS011;10050;55.492;13.506;2022-10-26T02:32:30;11.23;;;3.90;;
19780;SDS011;10050;55.492;13.506;2022-10-26T02:35:01;8.50;;;4.07;;
19780;SDS011;10050;55.492;13.506;2022-10-26T02:37:29;6.83;;;3.60;;
19780;SDS011;10050;55.492;13.506;2022-10-26T02:39:57;11.27;;;3.70;;
19780;SDS011;10050;55.492;13.506;2022-10-26T02:42:26;9.60;;;3.73;;
19780;SDS011;10050;55.492;13.506;2022-10-26T02:44:56;10.70;;;3.63;;
19780;SDS011;10050;55.492;13.506;2022-10-26T02:47:26;8.07;;;3.77;;
19780;SDS011;10050;55.492;13.506;2022-10-26T02:49:53;10.70;;;3.70;;
19780;SDS011;10050;55.492;13.506;2022-10-26T02:52:31;8.57;;;3.90;;
19780;SDS011;10050;55.492;13.506;2022-10-26T02:55:04;9.53;;;3.13;;
19780;SDS011;10050;55.492;13.506;2022-10-26T02:57:34;8.67;;;3.20;;
19780;SDS011;10050;55.492;13.506;2022-10-26T03:00:07;6.23;;;3.47;;
19780;SDS011;10050;55.492;13.506;2022-10-26T03:02:35;11.37;;;4.00;;
19780;SDS011;10050;55.492;13.506;2022-10-26T03:05:34;10.60;;;3.37;;
19780;SDS011;10050;55.492;13.506;2022-10-26T03:07:54;7.23;;;3.63;;
19780;SDS011;10050;55.492;13.506;2022-10-26T03:10:20;8.07;;;4.17;;
19780;SDS011;10050;55.492;13.506;2022-10-26T03:12:47;12.70;;;3.50;;
19780;SDS011;10050;55.492;13.506;2022-10-26T03:15:13;10.17;;;3.80;;
19780;SDS011;10050;55.492;13.506;2022-10-26T03:17:39;7.87;;;3.70;;
19780;SDS011;10050;55.492;13.506;2022-10-26T03:20:05;11.40;;;3.97;;
19780;SDS011;10050;55.492;13.506;2022-10-26T03:22:31;6.47;;;3.60;;
19780;SDS011;10050;55.492;13.506;2022-10-26T03:24:57;9.70;;;3.77;;
19780;SDS011;10050;55.492;13.506;2022-10-26T03:27:23;7.53;;;3.03;;
19780;SDS011;10050;55.492;13.506;2022-10-26T03:29:48;12.60;;;4.03;;
19780;SDS011;10050;55.492;13.506;2022-10-26T03:32:14;6.90;;;2.87;;
19780;SDS011;10050;55.492;13.506;2022-10-26T03:34:39;10.03;;;3.53;;
19780;SDS011;10050;55.492;13.506;2022-10-26T03:37:05;12.43;;;3.50;;
19780;SDS011;10050;55.492;13.506;2022-10-26T03:39:30;10.03;;;3.53;;
19780;SDS011;10050;55.492;13.506;2022-10-26T03:41:56;14.70;;;4.00;;
19780;SDS011;10050;55.492;13.506;2022-10-26T03:44:22;9.73;;;4.03;;
19780;SDS011;10050;55.492;13.506;2022-10-26T03:46:47;10.77;;;3.53;;
19780;SDS011;10050;55.492;13.506;2022-10-26T03:49:13;10.03;;;3.40;;
19780;SDS011;10050;55.492;13.506;2022-10-26T03:51:38;14.83;;;3.80;;
19780;SDS011;10050;55.492;13.506;2022-10-26T03:54:04;13.03;;;4.13;;
19780;SDS011;10050;55.492;13.506;2022-10-26T03:56:30;9.87;;;3.53;;
19780;SDS011;10050;55.492;13.506;2022-10-26T03:58:56;9.07;;;3.80;;
19780;SDS011;10050;55.492;13.506;2022-10-26T04:01:21;8.50;;;3.43;;
19780;SDS011;10050;55.492;13.506;2022-10-26T04:03:47;7.20;;;3.33;;
19780;SDS011;10050;55.492;13.506;2022-10-26T04:06:12;7.87;;;3.17;;
19780;SDS011;10050;55.492;13.506;2022-10-26T04:08:38;5.73;;;3.20;;
19780;SDS011;10050;55.492;13.506;2022-10-26T04:11:04;9.63;;;3.27;;
19780;SDS011;10050;55.492;13.506;2022-10-26T04:13:30;9.70;;;3.40;;
19780;SDS011;10050;55.492;13.506;2022-10-26T04:15:56;9.77;;;3.40;;
19780;SDS011;10050;55.492;13.506;2022-10-26T04:18:21;11.93;;;3.33;;
19780;SDS011;10050;55.492;13.506;2022-10-26T04:20:47;6.53;;;2.77;;
19780;SDS011;10050;55.492;13.506;2022-10-26T04:23:14;11.17;;;3.97;;
19780;SDS011;10050;55.492;13.506;2022-10-26T04:25:41;9.43;;;3.47;;
19780;SDS011;10050;55.492;13.506;2022-10-26T04:28:07;9.67;;;3.57;;
19780;SDS011;10050;55.492;13.506;2022-10-26T04:30:34;8.57;;;3.60;;
19780;SDS011;10050;55.492;13.506;2022-10-26T04:33:01;14.00;;;3.27;;
19780;SDS011;10050;55.492;13.506;2022-10-26T04:35:27;9.23;;;2.87;;
19780;SDS011;10050;55.492;13.506;2022-10-26T04:37:59;7.30;;;3.37;;
19780;SDS011;10050;55.492;13.506;2022-10-26T04:40:27;10.70;;;3.17;;
19780;SDS011;10050;55.492;13.506;2022-10-26T04:42:53;10.70;;;3.47;;
19780;SDS011;10050;55.492;13.506;2022-10-26T04:45:19;12.53;;;3.57;;
19780;SDS011;10050;55.492;13.506;2022-10-26T04:47:45;11.37;;;3.20;;
19780;SDS011;10050;55.492;13.506;2022-10-26T04:50:11;9.53;;;3.53;;
19780;SDS011;10050;55.492;13.506;2022-10-26T04:52:37;9.33;;;3.03;;
19780;SDS011;10050;55.492;13.506;2022-10-26T04:55:03;9.27;;;3.67;;
19780;SDS011;10050;55.492;13.506;2022-10-26T04:57:33;11.97;;;3.23;;
19780;SDS011;10050;55.492;13.506;2022-10-26T05:00:00;8.17;;;3.13;;
19780;SDS011;10050;55.492;13.506;2022-10-26T05:02:27;9.77;;;3.63;;
19780;SDS011;10050;55.492;13.506;2022-10-26T05:04:53;7.23;;;3.20;;
19780;SDS011;10050;55.492;13.506;2022-10-26T05:07:19;10.57;;;3.97;;
19780;SDS011;10050;55.492;13.506;2022-10-26T05:09:45;11.80;;;3.50;;
19780;SDS011;10050;55.492;13.506;2022-10-26T05:12:11;11.03;;;3.20;;
19780;SDS011;10050;55.492;13.506;2022-10-26T05:14:36;9.07;;;3.20;;
19780;SDS011;10050;55.492;13.506;2022-10-26T05:17:02;5.70;;;3.00;;
19780;SDS011;10050;55.492;13.506;2022-10-26T05:19:27;13.40;;;3.77;;
19780;SDS011;10050;55.492;13.506;2022-10-26T05:21:53;11.33;;;3.57;;
19780;SDS011;10050;55.492;13.506;2022-10-26T05:24:21;9.97;;;3.43;;
19780;SDS011;10050;55.492;13.506;2022-10-26T05:26:47;15.37;;;3.63;;
19780;SDS011;10050;55.492;13.506;2022-10-26T05:29:12;15.93;;;4.13;;
19780;SDS011;10050;55.492;13.506;2022-10-26T05:31:38;8.03;;;3.20;;
19780;SDS011;10050;55.492;13.506;2022-10-26T05:34:04;9.20;;;3.63;;
19780;SDS011;10050;55.492;13.506;2022-10-26T05:36:29;10.43;;;3.93;;
19780;SDS011;10050;55.492;13.506;2022-10-26T05:38:59;14.87;;;4.63;;
19780;SDS011;10050;55.492;13.506;2022-10-26T05:41:24;16.37;;;4.07;;
19780;SDS011;10050;55.492;13.506;2022-10-26T05:43:50;14.63;;;4.63;;
19780;SDS011;10050;55.492;13.506;2022-10-26T05:46:15;14.63;;;4.20;;
19780;SDS011;10050;55.492;13.506;2022-10-26T05:48:41;15.47;;;5.00;;
19780;SDS011;10050;55.492;13.506;2022-10-26T05:51:07;9.80;;;4.67;;
19780;SDS011;10050;55.492;13.506;2022-10-26T05:53:32;10.57;;;4.73;;
19780;SDS011;10050;55.492;13.506;2022-10-26T05:55:58;16.33;;;5.03;;
19780;SDS011;10050;55.492;13.506;2022-10-26T05:58:24;23.07;;;5.23;;
19780;SDS011;10050;55.492;13.506;2022-10-26T06:06:15;13.57;;;4.97;;
19780;SDS011;10050;55.492;13.506;2022-10-26T06:08:42;14.93;;;5.50;;
19780;SDS011;10050;55.492;13.506;2022-10-26T06:11:08;12.13;;;4.57;;
19780;SDS011;10050;55.492;13.506;2022-10-26T06:13:34;10.27;;;4.73;;
19780;SDS011;10050;55.492;13.506;2022-10-26T06:23:38;10.67;;;4.47;;
19780;SDS011;10050;55.492;13.506;2022-10-26T06:31:31;12.37;;;3.97;;
19780;SDS011;10050;55.492;13.506;2022-10-26T06:33:57;9.27;;;4.23;;
19780;SDS011;10050;55.492;13.506;2022-10-26T06:36:24;10.90;;;3.80;;
19780;SDS011;10050;55.492;13.506;2022-10-26T06:38:58;11.67;;;3.90;;
19780;SDS011;10050;55.492;13.506;2022-10-26T06:41:30;15.87;;;3.70;;
19780;SDS011;10050;55.492;13.506;2022-10-26T06:43:57;9.87;;;3.80;;
19780;SDS011;10050;55.492;13.506;2022-10-26T06:51:45;15.37;;;5.00;;
19780;SDS011;10050;55.492;13.506;2022-10-26T06:55:00;16.10;;;4.70;;
19780;SDS011;10050;55.492;13.506;2022-10-26T06:57:10;11.07;;;3.80;;
19780;SDS011;10050;55.492;13.506;2022-10-26T06:59:41;15.57;;;4.07;;
19780;SDS011;10050;55.492;13.506;2022-10-26T07:02:12;10.67;;;3.97;;
19780;SDS011;10050;55.492;13.506;2022-10-26T07:04:41;10.70;;;3.97;;
19780;SDS011;10050;55.492;13.506;2022-10-26T07:07:08;11.40;;;4.63;;
19780;SDS011;10050;55.492;13.506;2022-10-26T07:09:47;13.60;;;3.90;;
19780;SDS011;10050;55.492;13.506;2022-10-26T07:12:13;15.70;;;3.83;;
19780;SDS011;10050;55.492;13.506;2022-10-26T07:14:39;12.67;;;3.07;;
19780;SDS011;10050;55.492;13.506;2022-10-26T07:17:05;12.30;;;3.83;;
19780;SDS011;10050;55.492;13.506;2022-10-26T07:19:30;8.53;;;3.20;;
19780;SDS011;10050;55.492;13.506;2022-10-26T07:21:56;9.33;;;2.93;;
19780;SDS011;10050;55.492;13.506;2022-10-26T07:24:26;12.57;;;3.57;;
19780;SDS011;10050;55.492;13.506;2022-10-26T07:26:55;8.27;;;2.80;;
19780;SDS011;10050;55.492;13.506;2022-10-26T07:29:22;11.77;;;3.70;;
19780;SDS011;10050;55.492;13.506;2022-10-26T07:31:48;12.87;;;2.93;;
19780;SDS011;10050;55.492;13.506;2022-10-26T07:34:14;7.40;;;3.13;;
19780;SDS011;10050;55.492;13.506;2022-10-26T07:36:40;11.37;;;3.07;;
19780;SDS011;10050;55.492;13.506;2022-10-26T07:39:05;5.80;;;1.70;;
19780;SDS011;10050;55.492;13.506;2022-10-26T07:41:31;7.47;;;1.87;;
19780;SDS011;10050;55.492;13.506;2022-10-26T07:43:57;7.77;;;2.20;;
19780;SDS011;10050;55.492;13.506;2022-10-26T07:46:23;9.37;;;2.80;;
19780;SDS011;10050;55.492;13.506;2022-10-26T07:48:49;11.00;;;3.00;;
19780;SDS011;10050;55.492;13.506;2022-10-26T07:51:14;7.27;;;2.93;;
19780;SDS011;10050;55.492;13.506;2022-10-26T07:53:40;6.13;;;2.37;;
19780;SDS011;10050;55.492;13.506;2022-10-26T07:56:06;8.50;;;3.03;;
19780;SDS011;10050;55.492;13.506;2022-10-26T07:58:32;10.17;;;3.23;;
19780;SDS011;10050;55.492;13.506;2022-10-26T08:01:04;7.73;;;2.47;;
19780;SDS011;10050;55.492;13.506;2022-10-26T08:03:37;6.07;;;2.70;;
19780;SDS011;10050;55.492;13.506;2022-10-26T08:06:03;9.10;;;3.20;;
19780;SDS011;10050;55.492;13.506;2022-10-26T08:08:29;12.63;;;3.47;;
19780;SDS011;10050;55.492;13.506;2022-10-26T08:10:55;15.37;;;3.30;;
19780;SDS011;10050;55.492;13.506;2022-10-26T08:13:22;8.77;;;3.17;;
19780;SDS011;10050;55.492;13.506;2022-10-26T08:15:48;9.47;;;3.20;;
19780;SDS011;10050;55.492;13.506;2022-10-26T08:18:14;11.20;;;3.20;;
19780;SDS011;10050;55.492;13.506;2022-10-26T08:20:39;7.47;;;3.07;;
19780;SDS011;10050;55.492;13.506;2022-10-26T08:23:14;10.47;;;3.13;;
19780;SDS011;10050;55.492;13.506;2022-10-26T08:25:42;10.73;;;3.40;;
19780;SDS011;10050;55.492;13.506;2022-10-26T08:28:08;8.80;;;3.60;;
19780;SDS011;10050;55.492;13.506;2022-10-26T08:30:33;13.37;;;3.50;;
19780;SDS011;10050;55.492;13.506;2022-10-26T08:32:59;7.33;;;3.07;;
19780;SDS011;10050;55.492;13.506;2022-10-26T08:35:26;12.67;;;3.73;;
19780;SDS011;10050;55.492;13.506;2022-10-26T08:37:52;9.27;;;3.13;;
19780;SDS011;10050;55.492;13.506;2022-10-26T08:40:18;11.60;;;3.83;;
19780;SDS011;10050;55.492;13.506;2022-10-26T08:42:49;9.43;;;3.30;;
19780;SDS011;10050;55.492;13.506;2022-10-26T08:45:22;7.53;;;3.33;;
19780;SDS011;10050;55.492;13.506;2022-10-26T08:47:55;10.90;;;3.70;;
19780;SDS011;10050;55.492;13.506;2022-10-26T08:50:32;9.77;;;4.00;;
19780;SDS011;10050;55.492;13.506;2022-10-26T08:53:36;12.53;;;4.13;;
19780;SDS011;10050;55.492;13.506;2022-10-26T08:56:00;11.87;;;3.97;;
19780;SDS011;10050;55.492;13.506;2022-10-26T08:58:36;11.53;;;3.33;;
19780;SDS011;10050;55.492;13.506;2022-10-26T09:01:07;7.57;;;3.83;;
19780;SDS011;10050;55.492;13.506;2022-10-26T09:03:33;9.43;;;4.03;;
19780;SDS011;10050;55.492;13.506;2022-10-26T09:09:09;8.17;;;3.80;;
19780;SDS011;10050;55.492;13.506;2022-10-26T09:11:53;10.10;;;4.03;;
19780;SDS011;10050;55.492;13.506;2022-10-26T09:25:20;6.93;;;3.80;;
19780;SDS011;10050;55.492;13.506;2022-10-26T09:27:48;9.60;;;3.70;;
19780;SDS011;10050;55.492;13.506;2022-10-26T09:30:19;7.00;;;4.07;;
19780;SDS011;10050;55.492;13.506;2022-10-26T09:32:46;10.20;;;4.07;;
19780;SDS011;10050;55.492;13.506;2022-10-26T09:35:25;10.03;;;4.53;;
19780;SDS011;10050;55.492;13.506;2022-10-26T09:37:55;9.90;;;4.03;;
19780;SDS011;10050;55.492;13.506;2022-10-26T09:40:26;9.73;;;4.30;;
19780;SDS011;10050;55.492;13.506;2022-10-26T09:45:43;6.73;;;4.53;;
19780;SDS011;10050;55.492;13.506;2022-10-26T09:48:15;6.90;;;3.97;;
19780;SDS011;10050;55.492;13.506;2022-10-26T09:50:47;12.00;;;5.23;;
19780;SDS011;10050;55.492;13.506;2022-10-26T09:53:14;9.43;;;4.30;;
19780;SDS011;10050;55.492;13.506;2022-10-26T09:55:41;8.70;;;4.63;;
19780;SDS011;10050;55.492;13.506;2022-10-26T09:58:11;14.53;;;4.90;;
19780;SDS011;10050;55.492;13.506;2022-10-26T10:00:40;10.17;;;5.47;;
19780;SDS011;10050;55.492;13.506;2022-10-26T10:06:15;10.10;;;4.50;;
19780;SDS011;10050;55.492;13.506;2022-10-26T10:08:43;10.50;;;4.93;;
19780;SDS011;10050;55.492;13.506;2022-10-26T10:11:40;10.00;;;5.43;;
19780;SDS011;10050;55.492;13.506;2022-10-26T10:14:18;9.80;;;4.87;;
19780;SDS011;10050;55.492;13.506;2022-10-26T10:17:04;10.70;;;5.13;;
19780;SDS011;10050;55.492;13.506;2022-10-26T10:19:35;8.50;;;5.50;;
19780;SDS011;10050;55.492;13.506;2022-10-26T10:24:53;10.97;;;6.77;;
19780;SDS011;10050;55.492;13.506;2022-10-26T10:27:21;11.47;;;6.23;;
19780;SDS011;10050;55.492;13.506;2022-10-26T10:29:54;11.23;;;6.07;;
19780;SDS011;10050;55.492;13.506;2022-10-26T10:32:25;12.27;;;6.27;;
19780;SDS011;10050;55.492;13.506;2022-10-26T10:34:54;12.47;;;6.40;;
19780;SDS011;10050;55.492;13.506;2022-10-26T10:39:59;17.10;;;6.87;;
19780;SDS011;10050;55.492;13.506;2022-10-26T10:42:32;13.67;;;7.93;;
19780;SDS011;10050;55.492;13.506;2022-10-26T10:45:03;15.33;;;7.13;;
19780;SDS011;10050;55.492;13.506;2022-10-26T10:47:31;15.00;;;7.33;;
19780;SDS011;10050;55.492;13.506;2022-10-26T10:50:06;15.57;;;7.63;;
19780;SDS011;10050;55.492;13.506;2022-10-26T10:52:41;12.30;;;7.23;;
19780;SDS011;10050;55.492;13.506;2022-10-26T11:00:22;10.57;;;7.40;;
19780;SDS011;10050;55.492;13.506;2022-10-26T11:08:27;13.20;;;7.73;;
19780;SDS011;10050;55.492;13.506;2022-10-26T11:11:04;12.87;;;7.60;;
19780;SDS011;10050;55.492;13.506;2022-10-26T11:13:39;12.40;;;7.77;;
19780;SDS011;10050;55.492;13.506;2022-10-26T11:16:29;14.93;;;8.23;;
19780;SDS011;10050;55.492;13.506;2022-10-26T11:19:28;15.93;;;8.10;;
19780;SDS011;10050;55.492;13.506;2022-10-26T11:21:55;14.67;;;7.53;;
19780;SDS011;10050;55.492;13.506;2022-10-26T11:24:26;14.93;;;8.73;;
19780;SDS011;10050;55.492;13.506;2022-10-26T11:29:50;17.67;;;9.07;;
19780;SDS011;10050;55.492;13.506;2022-10-26T11:35:03;19.10;;;11.30;;
19780;SDS011;10050;55.492;13.506;2022-10-26T11:37:53;18.07;;;10.93;;
19780;SDS011;10050;55.492;13.506;2022-10-26T11:40:44;17.53;;;10.20;;
19780;SDS011;10050;55.492;13.506;2022-10-26T11:43:29;16.77;;;10.73;;
19780;SDS011;10050;55.492;13.506;2022-10-26T11:46:14;16.10;;;11.27;;
19780;SDS011;10050;55.492;13.506;2022-10-26T11:49:16;23.20;;;12.80;;
19780;SDS011;10050;55.492;13.506;2022-10-26T11:54:18;25.30;;;14.93;;
19780;SDS011;10050;55.492;13.506;2022-10-26T11:56:50;25.00;;;14.10;;
19780;SDS011;10050;55.492;13.506;2022-10-26T11:59:19;25.80;;;16.20;;
19780;SDS011;10050;55.492;13.506;2022-10-26T12:01:50;24.70;;;15.70;;
19780;SDS011;10050;55.492;13.506;2022-10-26T12:04:19;31.07;;;15.40;;
19780;SDS011;10050;55.492;13.506;2022-10-26T12:06:49;32.93;;;16.00;;
19780;SDS011;10050;55.492;13.506;2022-10-26T12:09:23;22.97;;;15.97;;
19780;SDS011;10050;55.492;13.506;2022-10-26T12:14:26;29.37;;;14.53;;
19780;SDS011;10050;55.492;13.506;2022-10-26T12:17:11;20.47;;;14.27;;
19780;SDS011;10050;55.492;13.506;2022-10-26T12:22:57;26.37;;;13.63;;
19780;SDS011;10050;55.492;13.506;2022-10-26T12:25:23;23.10;;;13.27;;
19780;SDS011;10050;55.492;13.506;2022-10-26T12:27:51;21.90;;;13.00;;
19780;SDS011;10050;55.492;13.506;2022-10-26T12:35:53;25.13;;;14.97;;
19780;SDS011;10050;55.492;13.506;2022-10-26T12:38:26;24.63;;;15.07;;
19780;SDS011;10050;55.492;13.506;2022-10-26T12:43:42;23.20;;;14.57;;
19780;SDS011;10050;55.492;13.506;2022-10-26T12:48:54;33.20;;;15.97;;
19780;SDS011;10050;55.492;13.506;2022-10-26T12:56:23;25.77;;;17.50;;
19780;SDS011;10050;55.492;13.506;2022-10-26T13:01:51;21.73;;;15.25;;
19780;SDS011;10050;55.492;13.506;2022-10-26T13:07:18;27.87;;;13.70;;
19780;SDS011;10050;55.492;13.506;2022-10-26T13:09:52;19.00;;;13.30;;
19780;SDS011;10050;55.492;13.506;2022-10-26T13:12:25;18.20;;;12.47;;
19780;SDS011;10050;55.492;13.506;2022-10-26T13:14:59;23.47;;;12.80;;
19780;SDS011;10050;55.492;13.506;2022-10-26T13:17:30;21.70;;;12.40;;
19780;SDS011;10050;55.492;13.506;2022-10-26T13:20:00;16.87;;;12.13;;
19780;SDS011;10050;55.492;13.506;2022-10-26T13:22:28;18.53;;;11.83;;
19780;SDS011;10050;55.492;13.506;2022-10-26T13:24:59;17.10;;;12.30;;
19780;SDS011;10050;55.492;13.506;2022-10-26T13:32:28;15.83;;;12.87;;
19780;SDS011;10050;55.492;13.506;2022-10-26T13:34:59;17.60;;;11.00;;
19780;SDS011;10050;55.492;13.506;2022-10-26T13:37:28;16.70;;;11.77;;
19780;SDS011;10050;55.492;13.506;2022-10-26T13:39:56;18.47;;;11.20;;
19780;SDS011;10050;55.492;13.506;2022-10-26T13:42:25;14.47;;;11.10;;
19780;SDS011;10050;55.492;13.506;2022-10-26T13:45:04;20.93;;;13.60;;
19780;SDS011;10050;55.492;13.506;2022-10-26T13:56:00;20.30;;;12.83;;
19780;SDS011;10050;55.492;13.506;2022-10-26T13:58:40;18.30;;;12.23;;
19780;SDS011;10050;55.492;13.506;2022-10-26T14:01:13;20.93;;;13.27;;
19780;SDS011;10050;55.492;13.506;2022-10-26T14:03:41;19.90;;;12.87;;
19780;SDS011;10050;55.492;13.506;2022-10-26T14:06:13;20.63;;;12.80;;
19780;SDS011;10050;55.492;13.506;2022-10-26T14:09:02;16.20;;;12.43;;
19780;SDS011;10050;55.492;13.506;2022-10-26T14:13:58;15.93;;;11.30;;
19780;SDS011;10050;55.492;13.506;2022-10-26T14:16:26;18.07;;;11.60;;
19780;SDS011;10050;55.492;13.506;2022-10-26T14:18:54;20.30;;;12.00;;
19780;SDS011;10050;55.492;13.506;2022-10-26T14:21:20;18.87;;;13.23;;
19780;SDS011;10050;55.492;13.506;2022-10-26T14:23:47;17.67;;;11.93;;
19780;SDS011;10050;55.492;13.506;2022-10-26T14:26:20;18.90;;;12.07;;
19780;SDS011;10050;55.492;13.506;2022-10-26T14:28:48;17.83;;;11.33;;
19780;SDS011;10050;55.492;13.506;2022-10-26T14:31:23;19.63;;;12.23;;
19780;SDS011;10050;55.492;13.506;2022-10-26T14:33:53;16.90;;;11.57;;
19780;SDS011;10050;55.492;13.506;2022-10-26T14:36:22;17.63;;;12.73;;
19780;SDS011;10050;55.492;13.506;2022-10-26T14:38:54;20.47;;;11.80;;
19780;SDS011;10050;55.492;13.506;2022-10-26T14:41:23;17.27;;;11.90;;
19780;SDS011;10050;55.492;13.506;2022-10-26T14:43:50;21.77;;;12.00;;
19780;SDS011;10050;55.492;13.506;2022-10-26T14:46:18;17.20;;;12.10;;
19780;SDS011;10050;55.492;13.506;2022-10-26T14:48:57;16.43;;;11.87;;
19780;SDS011;10050;55.492;13.506;2022-10-26T14:51:25;19.03;;;13.40;;
19780;SDS011;10050;55.492;13.506;2022-10-26T14:53:53;18.80;;;12.33;;
19780;SDS011;10050;55.492;13.506;2022-10-26T14:59:08;16.70;;;12.00;;
19780;SDS011;10050;55.492;13.506;2022-10-26T15:02:10;15.73;;;12.83;;
19780;SDS011;10050;55.492;13.506;2022-10-26T15:04:55;17.10;;;12.33;;
19780;SDS011;10050;55.492;13.506;2022-10-26T15:07:33;15.00;;;11.93;;
19780;SDS011;10050;55.492;13.506;2022-10-26T15:10:00;16.27;;;12.47;;
19780;SDS011;10050;55.492;13.506;2022-10-26T15:12:33;18.07;;;12.53;;
19780;SDS011;10050;55.492;13.506;2022-10-26T15:17:39;17.43;;;12.60;;
19780;SDS011;10050;55.492;13.506;2022-10-26T15:20:11;24.23;;;13.80;;
19780;SDS011;10050;55.492;13.506;2022-10-26T15:22:41;18.30;;;12.27;;
19780;SDS011;10050;55.492;13.506;2022-10-26T15:25:15;18.90;;;12.87;;
19780;SDS011;10050;55.492;13.506;2022-10-26T15:27:44;18.83;;;12.13;;
19780;SDS011;10050;55.492;13.506;2022-10-26T15:30:17;16.57;;;11.00;;
19780;SDS011;10050;55.492;13.506;2022-10-26T15:32:43;22.77;;;11.73;;
19780;SDS011;10050;55.492;13.506;2022-10-26T15:37:43;21.87;;;12.77;;
19780;SDS011;10050;55.492;13.506;2022-10-26T15:40:10;25.50;;;14.37;;
19780;SDS011;10050;55.492;13.506;2022-10-26T15:42:37;21.00;;;14.30;;
19780;SDS011;10050;55.492;13.506;2022-10-26T15:45:12;18.07;;;12.90;;
19780;SDS011;10050;55.492;13.506;2022-10-26T15:47:47;21.40;;;14.73;;
19780;SDS011;10050;55.492;13.506;2022-10-26T15:50:17;19.77;;;13.27;;
19780;SDS011;10050;55.492;13.506;2022-10-26T15:52:47;17.80;;;13.10;;
19780;SDS011;10050;55.492;13.506;2022-10-26T15:55:14;20.53;;;12.87;;
19780;SDS011;10050;55.492;13.506;2022-10-26T15:57:40;21.60;;;14.77;;
19780;SDS011;10050;55.492;13.506;2022-10-26T16:00:06;24.17;;;16.43;;
19780;SDS011;10050;55.492;13.506;2022-10-26T16:02:38;24.23;;;15.20;;
19780;SDS011;10050;55.492;13.506;2022-10-26T16:05:06;19.73;;;13.67;;
19780;SDS011;10050;55.492;13.506;2022-10-26T16:07:33;26.83;;;16.47;;
19780;SDS011;10050;55.492;13.506;2022-10-26T16:09:58;31.90;;;18.17;;
19780;SDS011;10050;55.492;13.506;2022-10-26T16:12:24;24.23;;;14.90;;
19780;SDS011;10050;55.492;13.506;2022-10-26T16:14:50;24.60;;;16.07;;
19780;SDS011;10050;55.492;13.506;2022-10-26T16:17:15;31.60;;;16.60;;
19780;SDS011;10050;55.492;13.506;2022-10-26T16:19:41;31.30;;;16.03;;
19780;SDS011;10050;55.492;13.506;2022-10-26T16:22:07;26.20;;;15.70;;
19780;SDS011;10050;55.492;13.506;2022-10-26T16:24:33;20.10;;;15.03;;
19780;SDS011;10050;55.492;13.506;2022-10-26T16:27:00;28.47;;;17.03;;
19780;SDS011;10050;55.492;13.506;2022-10-26T16:29:25;20.03;;;15.40;;
19780;SDS011;10050;55.492;13.506;2022-10-26T16:31:51;31.63;;;17.30;;
19780;SDS011;10050;55.492;13.506;2022-10-26T16:34:16;32.37;;;18.63;;
19780;SDS011;10050;55.492;13.506;2022-10-26T16:36:42;35.40;;;18.17;;
19780;SDS011;10050;55.492;13.506;2022-10-26T16:39:10;35.67;;;18.83;;
19780;SDS011;10050;55.492;13.506;2022-10-26T16:41:36;34.80;;;18.90;;
19780;SDS011;10050;55.492;13.506;2022-10-26T16:44:01;31.33;;;17.80;;
19780;SDS011;10050;55.492;13.506;2022-10-26T16:46:27;32.50;;;19.30;;
19780;SDS011;10050;55.492;13.506;2022-10-26T16:48:53;39.57;;;19.80;;
19780;SDS011;10050;55.492;13.506;2022-10-26T16:51:22;32.43;;;18.33;;
19780;SDS011;10050;55.492;13.506;2022-10-26T16:53:53;29.57;;;18.20;;
19780;SDS011;10050;55.492;13.506;2022-10-26T16:56:21;25.70;;;16.70;;